createdAt,value
2018-09-25T00:02:07.788Z,2.57
2018-09-25T00:06:17.325Z,2.20
2018-09-25T00:10:26.904Z,2.23
2018-09-25T00:14:36.318Z,1.70
2018-09-25T00:18:46.186Z,1.93
2018-09-25T00:22:55.813Z,2.43
2018-09-25T00:27:05.460Z,2.20
2018-09-25T00:31:14.980Z,1.70
2018-09-25T00:35:24.549Z,2.40
2018-09-25T00:39:34.027Z,2.10
2018-09-25T00:43:43.534Z,2.10
2018-09-25T00:47:53.246Z,2.40
2018-09-25T00:52:02.543Z,2.70
2018-09-25T00:56:12.067Z,3.10
2018-09-25T01:00:21.633Z,2.50
2018-09-25T01:04:31.337Z,2.80
2018-09-25T01:08:40.929Z,2.00
2018-09-25T01:12:50.808Z,2.80
2018-09-25T01:17:00.582Z,2.90
2018-09-25T01:21:11.074Z,2.40
2018-09-25T01:25:20.513Z,2.77
2018-09-25T01:29:31.163Z,2.63
2018-09-25T01:33:40.757Z,2.40
2018-09-25T01:37:50.224Z,2.50
2018-09-25T01:41:59.574Z,2.30
2018-09-25T01:46:09.139Z,1.80
2018-09-25T01:50:18.580Z,2.10
2018-09-25T01:54:28.117Z,1.97
2018-09-25T01:58:38.670Z,2.00
2018-09-25T02:02:48.738Z,1.50
2018-09-25T02:06:58.348Z,1.77
2018-09-25T02:11:07.669Z,1.80
2018-09-25T02:15:17.174Z,1.93
2018-09-25T02:19:26.506Z,1.70
2018-09-25T02:23:35.950Z,2.30
2018-09-25T02:27:45.517Z,1.60
2018-09-25T02:31:55.083Z,1.73
2018-09-25T02:36:13.433Z,2.07
2018-09-25T02:40:22.993Z,1.63
2018-09-25T02:44:32.475Z,1.80
2018-09-25T02:48:42.104Z,2.60
2018-09-25T02:52:51.682Z,1.80
2018-09-25T02:57:01.174Z,1.60
2018-09-25T03:01:10.639Z,1.90
2018-09-25T03:05:20.165Z,1.90
2018-09-25T03:09:29.708Z,1.87
2018-09-25T03:13:39.215Z,1.87
2018-09-25T03:17:48.687Z,1.90
2018-09-25T03:21:58.227Z,1.73
2018-09-25T03:26:07.656Z,1.80
2018-09-25T03:30:17.051Z,1.90
2018-09-25T03:34:26.390Z,1.90
2018-09-25T03:38:35.907Z,1.90
2018-09-25T03:42:45.487Z,2.30
2018-09-25T03:46:55.139Z,2.07
2018-09-25T03:51:04.691Z,1.73
2018-09-25T03:55:14.372Z,1.50
2018-09-25T03:59:23.950Z,1.40
2018-09-25T04:03:33.651Z,1.27
2018-09-25T04:07:43.143Z,2.40
2018-09-25T04:11:52.908Z,2.30
2018-09-25T04:16:02.348Z,2.10
2018-09-25T04:20:11.709Z,2.00
2018-09-25T04:24:21.393Z,2.20
2018-09-25T04:28:30.816Z,1.80
2018-09-25T04:32:40.520Z,1.73
2018-09-25T04:36:58.499Z,2.43
2018-09-25T04:41:11.083Z,2.00
2018-09-25T04:45:20.545Z,2.10
2018-09-25T04:49:30.403Z,1.73
2018-09-25T04:53:40.226Z,2.40
2018-09-25T04:57:49.975Z,5.97
2018-09-25T05:01:59.519Z,11.97
2018-09-25T05:06:09.002Z,4.17
2018-09-25T05:19:00.479Z,2.37
2018-09-25T05:23:09.825Z,2.17
2018-09-25T05:27:19.419Z,2.20
2018-09-25T05:31:29.026Z,2.33
2018-09-25T05:35:38.494Z,2.00
2018-09-25T05:39:48.406Z,3.10
2018-09-25T05:43:57.945Z,3.43
2018-09-25T05:48:07.537Z,2.13
2018-09-25T05:52:17.122Z,2.30
2018-09-25T05:56:26.552Z,2.00
2018-09-25T06:00:36.094Z,2.33
2018-09-25T06:04:45.577Z,1.70
2018-09-25T06:08:56.036Z,2.03
2018-09-25T06:13:05.871Z,1.90
2018-09-25T06:17:15.403Z,2.40
2018-09-25T06:21:24.971Z,2.47
2018-09-25T06:25:34.367Z,2.07
2018-09-25T06:29:43.887Z,2.17
2018-09-25T06:33:53.459Z,2.17
2018-09-25T06:38:02.870Z,2.70
2018-09-25T06:42:12.416Z,2.60
2018-09-25T06:46:22.122Z,2.27
2018-09-25T06:50:31.550Z,2.43
2018-09-25T06:54:41.125Z,1.73
2018-09-25T06:58:50.568Z,2.00
2018-09-25T07:03:00.096Z,1.50
2018-09-25T07:07:09.656Z,1.27
2018-09-25T07:11:19.431Z,1.13
2018-09-25T07:15:29.048Z,1.10
2018-09-25T07:19:38.653Z,1.20
2018-09-25T07:23:48.223Z,0.90
2018-09-25T07:27:57.801Z,1.27
2018-09-25T07:32:07.203Z,1.40
2018-09-25T07:36:16.812Z,0.97
2018-09-25T07:40:26.324Z,1.20
2018-09-25T07:44:35.807Z,1.37
2018-09-25T07:48:45.273Z,1.20
2018-09-25T07:52:55.942Z,1.20
2018-09-25T07:57:05.485Z,1.37
2018-09-25T08:01:15.187Z,0.90
2018-09-25T08:05:24.983Z,1.20
2018-09-25T08:09:34.623Z,1.07
2018-09-25T08:13:44.348Z,1.27
2018-09-25T08:17:53.994Z,0.80
2018-09-25T08:22:03.537Z,1.00
2018-09-25T08:26:13.188Z,0.80
2018-09-25T08:30:22.798Z,0.70
2018-09-25T08:34:32.244Z,0.80
2018-09-25T08:38:41.767Z,0.80
2018-09-25T08:42:51.383Z,1.10
2018-09-25T08:47:01.106Z,0.77
2018-09-25T08:51:11.608Z,1.10
2018-09-25T08:55:21.135Z,0.80
2018-09-25T08:59:30.687Z,0.80
2018-09-25T09:03:40.160Z,0.90
2018-09-25T09:07:49.938Z,1.07
2018-09-25T09:11:59.526Z,1.17
2018-09-25T09:16:08.963Z,0.90
2018-09-25T09:20:18.463Z,0.93
2018-09-25T09:24:27.951Z,1.10
2018-09-25T09:28:37.549Z,0.80
2018-09-25T09:32:47.598Z,1.17
2018-09-25T09:36:57.191Z,1.00
2018-09-25T09:41:07.808Z,0.80
2018-09-25T09:45:18.882Z,0.70
2018-09-25T09:49:28.725Z,1.00
2018-09-25T09:53:38.072Z,1.10
2018-09-25T09:57:49.144Z,1.00
2018-09-25T10:01:58.696Z,1.00
2018-09-25T10:06:08.433Z,0.70
2018-09-25T10:10:18.227Z,1.00
2018-09-25T10:14:27.758Z,0.97
2018-09-25T10:18:37.168Z,1.40
2018-09-25T10:22:46.967Z,1.00
2018-09-25T10:26:56.411Z,1.07
2018-09-25T10:31:05.726Z,1.10
2018-09-25T10:35:15.392Z,0.90
2018-09-25T10:39:25.052Z,1.30
2018-09-25T10:43:34.461Z,1.13
2018-09-25T10:47:43.903Z,1.03
2018-09-25T10:51:53.343Z,0.93
2018-09-25T10:56:03.032Z,0.90
2018-09-25T11:00:12.585Z,0.70
2018-09-25T11:04:21.932Z,0.80
2018-09-25T11:08:31.410Z,0.90
2018-09-25T11:12:40.882Z,0.83
2018-09-25T11:16:50.608Z,1.10
2018-09-25T11:21:00.106Z,0.77
2018-09-25T11:25:09.696Z,0.70
2018-09-25T11:29:20.333Z,1.00
2018-09-25T11:33:29.638Z,0.90
2018-09-25T11:37:39.115Z,0.80
2018-09-25T11:41:48.885Z,1.00
2018-09-25T11:45:58.509Z,0.77
2018-09-25T11:50:08.126Z,0.77
2018-09-25T11:54:17.739Z,0.70
2018-09-25T11:58:27.151Z,0.73
2018-09-25T12:02:36.663Z,0.60
2018-09-25T12:06:46.047Z,0.70
2018-09-25T12:10:55.611Z,0.80
2018-09-25T12:15:05.082Z,0.60
2018-09-25T12:19:14.718Z,0.60
2018-09-25T12:23:24.409Z,0.77
2018-09-25T12:27:33.783Z,0.67
2018-09-25T12:31:43.635Z,1.30
2018-09-25T12:35:53.242Z,0.90
2018-09-25T12:40:02.654Z,0.90
2018-09-25T12:44:12.217Z,1.57
2018-09-25T12:48:21.722Z,0.80
2018-09-25T12:52:31.088Z,0.80
2018-09-25T12:56:40.635Z,1.00
2018-09-25T13:00:50.053Z,0.87
2018-09-25T13:04:59.538Z,0.97
2018-09-25T13:09:09.168Z,0.90
2018-09-25T13:13:18.758Z,0.93
2018-09-25T13:17:28.226Z,0.93
2018-09-25T13:21:37.815Z,1.17
2018-09-25T13:25:47.272Z,0.93
2018-09-25T13:29:56.826Z,0.80
2018-09-25T13:34:06.363Z,0.90
2018-09-25T13:38:16.215Z,1.00
2018-09-25T13:42:25.755Z,0.80
2018-09-25T13:46:35.492Z,0.70
2018-09-25T13:50:45.012Z,1.10
2018-09-25T13:54:54.541Z,0.93
2018-09-25T13:59:03.954Z,1.50
2018-09-25T14:03:13.547Z,1.10
2018-09-25T14:07:23.154Z,0.90
2018-09-25T14:11:32.594Z,0.73
2018-09-25T14:15:42.052Z,0.90
2018-09-25T14:19:51.595Z,1.10
2018-09-25T14:24:01.058Z,1.30
2018-09-25T14:28:11.657Z,1.20
2018-09-25T14:32:21.351Z,1.10
2018-09-25T14:36:30.742Z,1.17
2018-09-25T14:40:40.064Z,1.00
2018-09-25T14:44:49.608Z,1.40
2018-09-25T14:48:59.135Z,1.03
2018-09-25T14:53:08.919Z,0.97
2018-09-25T14:57:19.205Z,1.10
2018-09-25T15:01:28.603Z,0.70
2018-09-25T15:05:38.095Z,0.83
2018-09-25T15:09:47.555Z,0.80
2018-09-25T15:13:57.114Z,1.40
2018-09-25T15:18:06.755Z,1.10
2018-09-25T15:22:16.462Z,0.93
2018-09-25T15:26:25.615Z,1.10
2018-09-25T15:30:35.978Z,1.30
2018-09-25T15:34:45.530Z,1.30
2018-09-25T15:38:55.107Z,1.33
2018-09-25T15:43:04.711Z,1.10
2018-09-25T15:47:14.147Z,1.40
2018-09-25T15:51:23.564Z,1.00
2018-09-25T15:55:33.111Z,1.23
2018-09-25T15:59:42.538Z,1.40
2018-09-25T16:03:52.195Z,1.17
2018-09-25T16:08:01.531Z,1.30
2018-09-25T16:12:12.063Z,0.90
2018-09-25T16:16:21.540Z,1.67
2018-09-25T16:20:31.013Z,1.20
2018-09-25T16:24:41.005Z,1.30
2018-09-25T16:28:50.825Z,1.10
2018-09-25T16:33:00.316Z,3.10
2018-09-25T16:37:09.920Z,1.57
2018-09-25T16:41:19.626Z,1.43
2018-09-25T16:47:14.386Z,1.40
2018-09-25T16:51:23.977Z,1.40
2018-09-25T16:55:33.463Z,1.30
2018-09-25T16:59:43.209Z,1.50
2018-09-25T17:03:53.378Z,2.40
2018-09-25T17:08:03.023Z,1.90
2018-09-25T17:12:13.004Z,2.00
2018-09-25T17:16:22.543Z,2.40
2018-09-25T17:20:32.105Z,2.30
2018-09-25T17:24:41.715Z,1.93
2018-09-25T17:28:51.555Z,1.87
2018-09-25T17:33:01.134Z,1.87
2018-09-25T17:37:10.540Z,2.57
2018-09-25T17:41:20.036Z,2.70
2018-09-25T17:45:29.376Z,2.13
2018-09-25T17:49:38.913Z,1.87
2018-09-25T17:53:48.388Z,2.50
2018-09-25T17:57:57.843Z,2.30
2018-09-25T18:02:07.188Z,2.20
2018-09-25T18:06:16.906Z,2.23
2018-09-25T18:10:26.498Z,2.70
2018-09-25T18:14:35.961Z,2.40
2018-09-25T18:18:45.363Z,2.70
2018-09-25T18:22:54.901Z,2.67
2018-09-25T18:27:04.522Z,2.90
2018-09-25T18:31:14.239Z,2.47
2018-09-25T18:38:24.548Z,3.57
2018-09-25T18:42:34.214Z,3.43
2018-09-25T18:46:43.700Z,3.20
2018-09-25T18:50:53.524Z,3.07
2018-09-25T18:55:03.173Z,3.87
2018-09-25T18:59:12.737Z,3.53
2018-09-25T19:03:22.205Z,3.33
2018-09-25T19:07:31.727Z,3.20
2018-09-25T19:11:41.767Z,4.30
2018-09-25T19:15:51.463Z,3.20
2018-09-25T19:20:00.996Z,2.30
2018-09-25T19:24:10.479Z,3.07
2018-09-25T19:28:20.238Z,3.30
2018-09-25T19:32:29.549Z,3.63
2018-09-25T19:36:39.036Z,12.23
2018-09-25T19:40:48.620Z,3.60
2018-09-25T19:44:58.100Z,2.93
2018-09-25T19:49:07.516Z,2.33
2018-09-25T19:53:17.137Z,2.77
2018-09-25T19:57:26.895Z,3.10
2018-09-25T20:01:36.622Z,2.90
2018-09-25T20:05:46.167Z,2.33
2018-09-25T20:09:55.818Z,2.00
2018-09-25T20:14:05.341Z,4.20
2018-09-25T20:18:14.877Z,3.03
2018-09-25T20:22:24.403Z,2.87
2018-09-25T20:26:33.901Z,2.10
2018-09-25T20:30:43.395Z,2.30
2018-09-25T20:34:52.798Z,2.00
2018-09-25T20:39:02.690Z,2.17
2018-09-25T20:43:12.560Z,2.47
2018-09-25T20:47:22.307Z,1.80
2018-09-25T20:51:31.855Z,1.70
2018-09-25T20:55:41.133Z,7.07
2018-09-25T20:59:50.683Z,2.50
2018-09-25T21:04:00.069Z,2.23
2018-09-25T21:08:09.667Z,1.93
2018-09-25T21:12:19.299Z,2.00
2018-09-25T21:16:28.828Z,2.00
2018-09-25T21:20:38.315Z,2.03
2018-09-25T21:24:48.881Z,2.20
2018-09-25T21:28:58.168Z,2.23
2018-09-25T21:33:07.647Z,2.60
2018-09-25T21:37:17.082Z,2.43
2018-09-25T21:41:26.719Z,3.00
2018-09-25T21:45:36.959Z,2.90
2018-09-25T21:49:46.415Z,3.27
2018-09-25T21:53:55.993Z,3.53
2018-09-25T21:58:05.540Z,2.77
2018-09-25T22:02:14.904Z,2.57
2018-09-25T22:06:24.360Z,2.70
2018-09-25T22:10:33.782Z,2.47
2018-09-25T22:14:43.329Z,2.40
2018-09-25T22:18:52.811Z,2.70
2018-09-25T22:23:02.383Z,2.43
2018-09-25T22:27:11.892Z,2.40
2018-09-25T22:31:21.309Z,2.20
2018-09-25T22:35:30.719Z,3.00
2018-09-25T22:39:40.769Z,2.53
2018-09-25T22:43:50.321Z,2.87
2018-09-25T22:47:59.826Z,2.90
2018-09-25T22:52:09.292Z,3.67
2018-09-25T22:56:20.759Z,3.07
2018-09-25T23:00:30.234Z,2.67
2018-09-25T23:04:39.669Z,2.70
2018-09-25T23:08:49.230Z,3.17
2018-09-25T23:12:58.740Z,2.80
2018-09-25T23:17:08.277Z,2.90
2018-09-25T23:21:18.057Z,3.20
2018-09-25T23:25:27.410Z,3.23
2018-09-25T23:29:37.005Z,3.43
2018-09-25T23:33:46.647Z,3.27
2018-09-25T23:37:57.087Z,3.37
2018-09-25T23:42:05.687Z,2.90
2018-09-25T23:46:19.198Z,3.70
2018-09-25T23:50:26.979Z,3.33
2018-09-25T23:54:36.246Z,3.60
2018-09-25T23:58:47.741Z,3.13
